CheckWX is a tool to help pilots better visualize weather data.  It is not intended as a substitute for an official pre-flight weather briefing.

18:17:45 UTC

LFPV METAR
Villacoublay-Vélizy (BA 107) Air Base Airport
Villacoublay/Vélizy, France
Current

18 mins ago

LFPV 171800Z AUTO 18008KT 9999 FEW013 BKN078 BKN090 14/13 Q1010 TEMPO 3000 SHRA BKN014TCU
Observed
Oct-17 @ 18:00 UTC
Wind
  • 180° at 8 KTS
Visibility
10,000+ meters
Flight Rules
VFR
Cloud Levels
  • Few at 1,300' AGL
  • Broken at 7,800' AGL
  • Broken at 9,000' AGL
Temperature
14°C / 57°F
Dewpoint
13°C / 55°F
Humidity
94%
Altimeter
29.82" Hg
Pressure
1009.92 hPa
Previous

48 mins ago

LFPV 171730Z AUTO 18007KT 9999 FEW016 BKN088 14/12 Q1010 TEMPO 3000 SHRA BKN014TCU
Observed
Oct-17 @ 17:30 UTC
Wind
  • 180° at 7 KTS
Visibility
10,000+ meters
Flight Rules
VFR
Cloud Levels
  • Few at 1,600' AGL
  • Broken at 8,800' AGL
Temperature
14°C / 57°F
Dewpoint
12°C / 54°F
Humidity
88%
Altimeter
29.82" Hg
Pressure
1009.92 hPa
Previous

1 hour ago

LFPV 171700Z AUTO 18007KT 150V230 CAVOK 15/12 Q1010 TEMPO 3000 SHRA BKN014TCU
Observed
Oct-17 @ 17:00 UTC
Wind
  • 180° at 7 KTS
Visibility
10,000+ meters
Flight Rules
VFR
Cloud Levels
  • Clear skies
Temperature
15°C / 59°F
Dewpoint
12°C / 54°F
Humidity
82%
Altimeter
29.82" Hg
Pressure
1009.92 hPa